Flight Track Log - Related Links

Times and Time Zones

All times are in EDT time to prevent confusion due to time zone crossing. See the GGN7280 flight status page for this flight to view local times or setup timezone preferences in your user account.

Time Position Orientation Groundspeed Altitude Reporting Facility
EDT Latitude Longitude Course Direction KTS MPH feet Rate Location/Type
Fri 10:12:05 43.6667 -79.5833 90° East 50 58 800  Level Toronto Center
Fri 10:13:05 43.6667 -79.5333 90° East 150 173 2,200 1,250 Climbing Toronto Center
Fri 10:14:05 43.6500 -79.4667 109° East 190 219 3,300 850 Climbing Toronto Center
Fri 10:15:05 43.6333 -79.4000 109° East 210 242 3,900 800 Climbing Toronto Center
Fri 10:16:05 43.6000 -79.3167 119° Southeast 220 253 4,900 1,000 Climbing Toronto Center
Fri 10:17:05 43.5667 -79.2500 125° Southeast 220 253 5,900 1,100 Climbing Toronto Center
Fri 10:18:05 43.5333 -79.1667 119° Southeast 220 253 7,100 1,050 Climbing Toronto Center
Fri 10:19:05 43.5000 -79.1000 125° Southeast 230 265 8,000 950 Climbing Toronto Center
Fri 10:20:05 43.4667 -79.0167 119° Southeast 240 276 9,000 500 Climbing Toronto Center
Fri 10:21:05 43.4333 -78.9167 115° Southeast 260 299 9,000  Level Toronto Center
Fri 10:22:05 43.4167 -78.8333 105° East 270 311 9,000  Level Toronto Center
Fri 10:23:05 43.4000 -78.7333 103° East 270 311 9,000  Level Toronto Center
Fri 10:24:05 43.4000 -78.6167 90° East 270 311 9,000 -60 Level Toronto Center
Fri 10:24:45 43.3872 -78.5922 126° Southeast 272 313 8,900 -92 Descending Cleveland Center
Fri 10:25:10 43.3842 -78.5467 95° East 271 312 8,900  Level Cleveland Center
Fri 10:26:10 43.3719 -78.4442 99° East 271 312 8,900  Level Cleveland Center
Fri 10:27:17 43.3575 -78.3333 100° East 271 312 8,900  Level Cleveland Center
Fri 10:28:24 43.3467 -78.2167 97° East 270 311 8,900  Level Cleveland Center
Fri 10:29:30 43.3319 -78.1089 101° East 270 311 8,900  Level Cleveland Center
Fri 10:30:37 43.3211 -77.9922 97° East 270 311 8,900  Level Cleveland Center
Fri 10:31:38 43.3083 -77.8900 100° East 272 313 8,900  Level Cleveland Center
Fri 10:32:38 43.2953 -77.7822 99° East 272 313 8,900  Level Cleveland Center
Fri 10:33:33 43.2828 -77.6914 101° East 272 313 8,900  Level Cleveland Center
Fri 10:34:33 43.2697 -77.5867 100° East 275 316 8,900  Level Cleveland Center
Fri 10:35:34 43.2586 -77.4844 98° East 279 321 8,900  Level Cleveland Center
Fri 10:36:35 43.2453 -77.3797 100° East 278 320 8,900  Level Cleveland Center
Fri 10:37:35 43.2319 -77.2719 100° East 278 320 8,900  Level Cleveland Center
Fri 10:38:36 43.2206 -77.1672 98° East 278 320 8,900  Level Cleveland Center
Fri 10:40:40 43.1967 -76.9581 99° East 278 320 8,900  Level Boston Center
Fri 10:41:05 43.1833 -76.8833 104° East 280 322 8,900  Level Toronto Center
Fri 10:42:05 43.1667 -76.7833 103° East 280 322 8,900 50 Level Toronto Center
Fri 10:43:05 43.1500 -76.6667 101° East 280 322 9,000  Climbing Toronto Center
Fri 10:44:05 43.1333 -76.5667 103° East 280 322 8,900 -38 Descending Toronto Center
Fri 10:45:43 43.1267 -76.4319 94° East 276 318 8,900  Level Boston Center
Fri 10:46:44 43.1114 -76.3283 101° East 277 319 8,900 50 Level Boston Center
Fri 10:47:44 43.0983 -76.2253 100° East 275 316 9,000 50 Climbing Boston Center
Fri 10:48:45 43.0850 -76.1192 100° East 271 312 9,000 -49 Level Boston Center
Fri 10:49:46 43.0694 -76.0186 102° East 267 307 8,900 -52 Descending Boston Center
Fri 10:50:40 43.0578 -75.9269 100° East 269 310 8,900  Level Boston Center
Fri 10:51:41 43.0442 -75.8267 100° East 270 311 8,900  Level Boston Center
Fri 10:52:42 43.0325 -75.7239 99° East 274 315 8,900  Level Boston Center
Fri 10:53:48 43.0147 -75.6178 103° East 274 315 8,900  Level Boston Center
Fri 10:54:43 43.0028 -75.5236 100° East 273 314 8,900 50 Level Boston Center
Fri 10:55:49 42.9872 -75.4036 100° East 275 316 9,000  Climbing Boston Center
Fri 10:56:50 42.9708 -75.3006 102° East 275 316 8,900 -45 Descending Boston Center
Fri 10:58:03 42.9553 -75.1750 100° East 274 315 8,900  Level Boston Center
Fri 10:59:04 42.9369 -75.0750 104° East 275 316 8,900 47 Level Boston Center
Fri 11:00:10 42.9206 -74.9608 101° East 276 318 9,000  Climbing Boston Center
Fri 11:01:11 42.9042 -74.8581 102° East 274 315 8,900 -49 Descending Boston Center
Fri 11:02:13 42.8917 -74.7556 99° East 271 312 8,900 45 Level Boston Center
Fri 11:03:25 42.8878 -74.6306 92° East 272 313 9,000 45 Climbing Boston Center
Fri 11:04:26 42.8917 -74.5317 87° East 265 305 9,000 -344 Level Boston Center
Fri 11:05:27 42.8561 -74.4369 117° Southeast 296 341 8,300 -887 Descending Boston Center
Fri 11:06:21 42.8158 -74.3536 123° Southeast 290 334 7,300 -1,043 Descending Boston Center
Fri 11:07:22 42.7756 -74.2703 123° Southeast 260 299 6,300 -1,131 Descending Boston Center
Fri 11:08:23 42.7328 -74.1925 127° Southeast 238 274 5,000 -1,240 Descending Boston Center
Fri 11:09:23 42.7133 -74.1128 108° East 220 253 3,800 -843 Descending Boston Center
Fri 11:10:24 42.6978 -74.0306 104° East 227 261 3,300 -443 Descending Boston Center
Fri 11:11:25 42.6803 -73.9425 105° East 241 277 2,900 -496 Descending Boston Center
Fri 11:12:25 42.6689 -73.8575 100° East 213 245 2,300 -600 Descending Boston Center

Login

Don't have an account? Register now (free) for customized features, flight alerts, and more!